sensor_id;sensor_type;location;lat;lon;timestamp;temperature;humidity
52203;DHT22;38173;52.850;6.970;2023-05-10T00:00:37;13.60;99.90
52203;DHT22;38173;52.850;6.970;2023-05-10T00:03:06;13.60;99.90
52203;DHT22;38173;52.850;6.970;2023-05-10T00:05:32;13.50;99.90
52203;DHT22;38173;52.850;6.970;2023-05-10T00:07:57;13.60;99.90
52203;DHT22;38173;52.850;6.970;2023-05-10T00:10:23;13.60;99.90
52203;DHT22;38173;52.850;6.970;2023-05-10T00:12:49;13.60;99.90
52203;DHT22;38173;52.850;6.970;2023-05-10T00:15:14;13.60;99.90
52203;DHT22;38173;52.850;6.970;2023-05-10T00:17:40;13.60;99.90
52203;DHT22;38173;52.850;6.970;2023-05-10T00:20:06;13.40;99.90
52203;DHT22;38173;52.850;6.970;2023-05-10T00:22:32;13.30;99.90
52203;DHT22;38173;52.850;6.970;2023-05-10T00:24:58;13.30;99.90
52203;DHT22;38173;52.850;6.970;2023-05-10T00:27:23;13.10;99.90
52203;DHT22;38173;52.850;6.970;2023-05-10T00:29:49;13.00;99.90
52203;DHT22;38173;52.850;6.970;2023-05-10T00:32:15;13.00;99.90
52203;DHT22;38173;52.850;6.970;2023-05-10T00:34:40;13.00;99.90
52203;DHT22;38173;52.850;6.970;2023-05-10T00:37:06;12.90;99.90
52203;DHT22;38173;52.850;6.970;2023-05-10T00:39:31;12.80;99.90
52203;DHT22;38173;52.850;6.970;2023-05-10T00:41:58;12.80;99.90
52203;DHT22;38173;52.850;6.970;2023-05-10T00:44:25;12.80;99.90
52203;DHT22;38173;52.850;6.970;2023-05-10T00:46:51;12.80;99.90
52203;DHT22;38173;52.850;6.970;2023-05-10T00:49:17;12.70;99.90
52203;DHT22;38173;52.850;6.970;2023-05-10T00:51:43;12.70;99.90
52203;DHT22;38173;52.850;6.970;2023-05-10T00:54:11;12.70;99.90
52203;DHT22;38173;52.850;6.970;2023-05-10T00:56:37;12.70;99.90
52203;DHT22;38173;52.850;6.970;2023-05-10T00:59:03;12.70;99.90
52203;DHT22;38173;52.850;6.970;2023-05-10T01:01:28;12.70;99.90
52203;DHT22;38173;52.850;6.970;2023-05-10T01:03:55;12.70;99.90
52203;DHT22;38173;52.850;6.970;2023-05-10T01:06:21;12.60;99.90
52203;DHT22;38173;52.850;6.970;2023-05-10T01:08:46;12.70;99.90
52203;DHT22;38173;52.850;6.970;2023-05-10T01:11:13;12.60;99.90
52203;DHT22;38173;52.850;6.970;2023-05-10T01:13:39;12.60;99.90
52203;DHT22;38173;52.850;6.970;2023-05-10T01:16:04;12.60;99.90
52203;DHT22;38173;52.850;6.970;2023-05-10T01:18:40;12.60;99.90
52203;DHT22;38173;52.850;6.970;2023-05-10T01:21:14;12.50;99.90
52203;DHT22;38173;52.850;6.970;2023-05-10T01:34:09;12.40;99.90
52203;DHT22;38173;52.850;6.970;2023-05-10T01:39:09;12.50;99.90
52203;DHT22;38173;52.850;6.970;2023-05-10T01:41:44;12.40;99.90
52203;DHT22;38173;52.850;6.970;2023-05-10T01:44:29;12.40;99.90
52203;DHT22;38173;52.850;6.970;2023-05-10T01:47:07;12.40;99.90
52203;DHT22;38173;52.850;6.970;2023-05-10T01:49:39;12.40;99.90
52203;DHT22;38173;52.850;6.970;2023-05-10T01:52:08;12.40;99.90
52203;DHT22;38173;52.850;6.970;2023-05-10T01:54:35;12.40;99.90
52203;DHT22;38173;52.850;6.970;2023-05-10T01:57:05;12.40;99.90
52203;DHT22;38173;52.850;6.970;2023-05-10T01:59:34;12.40;99.90
52203;DHT22;38173;52.850;6.970;2023-05-10T02:02:01;12.40;99.90
52203;DHT22;38173;52.850;6.970;2023-05-10T02:04:27;12.40;99.90
52203;DHT22;38173;52.850;6.970;2023-05-10T02:06:53;12.40;99.90
52203;DHT22;38173;52.850;6.970;2023-05-10T02:09:20;12.30;99.90
52203;DHT22;38173;52.850;6.970;2023-05-10T02:11:46;12.30;99.90
52203;DHT22;38173;52.850;6.970;2023-05-10T02:14:13;12.30;99.90
52203;DHT22;38173;52.850;6.970;2023-05-10T02:16:39;12.40;99.90
52203;DHT22;38173;52.850;6.970;2023-05-10T02:19:05;12.40;99.90
52203;DHT22;38173;52.850;6.970;2023-05-10T02:21:32;12.30;99.90
52203;DHT22;38173;52.850;6.970;2023-05-10T02:23:58;12.30;99.90
52203;DHT22;38173;52.850;6.970;2023-05-10T02:26:24;12.30;99.90
52203;DHT22;38173;52.850;6.970;2023-05-10T02:28:51;12.30;99.90
52203;DHT22;38173;52.850;6.970;2023-05-10T02:31:18;12.30;99.90
52203;DHT22;38173;52.850;6.970;2023-05-10T02:33:44;12.30;99.90
52203;DHT22;38173;52.850;6.970;2023-05-10T02:36:10;12.30;99.90
52203;DHT22;38173;52.850;6.970;2023-05-10T02:38:36;12.30;99.90
52203;DHT22;38173;52.850;6.970;2023-05-10T02:41:02;12.20;99.90
52203;DHT22;38173;52.850;6.970;2023-05-10T02:43:30;12.20;99.90
52203;DHT22;38173;52.850;6.970;2023-05-10T02:45:56;12.20;99.90
52203;DHT22;38173;52.850;6.970;2023-05-10T02:48:24;12.30;99.90
52203;DHT22;38173;52.850;6.970;2023-05-10T02:50:50;12.20;99.90
52203;DHT22;38173;52.850;6.970;2023-05-10T02:53:23;12.20;99.90
52203;DHT22;38173;52.850;6.970;2023-05-10T02:55:52;12.20;99.90
52203;DHT22;38173;52.850;6.970;2023-05-10T02:58:20;12.20;99.90
52203;DHT22;38173;52.850;6.970;2023-05-10T03:00:47;12.10;99.90
52203;DHT22;38173;52.850;6.970;2023-05-10T03:03:12;12.20;99.90
52203;DHT22;38173;52.850;6.970;2023-05-10T03:05:38;12.20;99.90
52203;DHT22;38173;52.850;6.970;2023-05-10T03:08:04;12.20;99.90
52203;DHT22;38173;52.850;6.970;2023-05-10T03:10:30;12.20;99.90
52203;DHT22;38173;52.850;6.970;2023-05-10T03:13:01;12.10;99.90
52203;DHT22;38173;52.850;6.970;2023-05-10T03:15:48;12.20;99.90
52203;DHT22;38173;52.850;6.970;2023-05-10T03:18:18;12.20;99.90
52203;DHT22;38173;52.850;6.970;2023-05-10T03:20:50;12.10;99.90
52203;DHT22;38173;52.850;6.970;2023-05-10T03:23:21;12.10;99.90
52203;DHT22;38173;52.850;6.970;2023-05-10T03:25:48;12.10;99.90
52203;DHT22;38173;52.850;6.970;2023-05-10T03:28:14;12.10;99.90
52203;DHT22;38173;52.850;6.970;2023-05-10T03:30:40;12.10;99.90
52203;DHT22;38173;52.850;6.970;2023-05-10T03:33:06;12.10;99.90
52203;DHT22;38173;52.850;6.970;2023-05-10T03:35:35;12.10;99.90
52203;DHT22;38173;52.850;6.970;2023-05-10T03:38:00;12.10;99.90
52203;DHT22;38173;52.850;6.970;2023-05-10T03:40:26;12.10;99.90
52203;DHT22;38173;52.850;6.970;2023-05-10T03:42:54;12.10;99.90
52203;DHT22;38173;52.850;6.970;2023-05-10T03:45:20;12.10;99.90
52203;DHT22;38173;52.850;6.970;2023-05-10T03:47:46;12.00;99.90
52203;DHT22;38173;52.850;6.970;2023-05-10T03:50:11;12.10;99.90
52203;DHT22;38173;52.850;6.970;2023-05-10T03:52:37;12.10;99.90
52203;DHT22;38173;52.850;6.970;2023-05-10T03:55:04;12.10;99.90
52203;DHT22;38173;52.850;6.970;2023-05-10T03:57:30;12.10;99.90
52203;DHT22;38173;52.850;6.970;2023-05-10T03:59:56;12.10;99.90
52203;DHT22;38173;52.850;6.970;2023-05-10T04:02:21;12.10;99.90
52203;DHT22;38173;52.850;6.970;2023-05-10T04:04:47;12.10;99.90
52203;DHT22;38173;52.850;6.970;2023-05-10T04:07:13;12.10;99.90
52203;DHT22;38173;52.850;6.970;2023-05-10T04:09:39;12.10;99.90
52203;DHT22;38173;52.850;6.970;2023-05-10T04:12:05;12.10;99.90
52203;DHT22;38173;52.850;6.970;2023-05-10T04:14:31;12.10;99.90
52203;DHT22;38173;52.850;6.970;2023-05-10T04:16:57;12.10;99.90
52203;DHT22;38173;52.850;6.970;2023-05-10T04:19:22;12.10;99.90
52203;DHT22;38173;52.850;6.970;2023-05-10T04:21:52;12.10;99.90
52203;DHT22;38173;52.850;6.970;2023-05-10T04:24:19;12.00;99.90
52203;DHT22;38173;52.850;6.970;2023-05-10T04:26:44;12.10;99.90
52203;DHT22;38173;52.850;6.970;2023-05-10T04:29:13;12.10;99.90
52203;DHT22;38173;52.850;6.970;2023-05-10T04:31:39;12.00;99.90
52203;DHT22;38173;52.850;6.970;2023-05-10T04:34:05;12.00;99.90
52203;DHT22;38173;52.850;6.970;2023-05-10T04:36:30;12.00;99.90
52203;DHT22;38173;52.850;6.970;2023-05-10T04:38:57;12.00;99.90
52203;DHT22;38173;52.850;6.970;2023-05-10T04:41:23;12.10;99.90
52203;DHT22;38173;52.850;6.970;2023-05-10T04:43:50;12.10;99.90
52203;DHT22;38173;52.850;6.970;2023-05-10T04:46:15;12.00;99.90
52203;DHT22;38173;52.850;6.970;2023-05-10T04:48:41;12.10;99.90
52203;DHT22;38173;52.850;6.970;2023-05-10T04:51:07;12.10;99.90
52203;DHT22;38173;52.850;6.970;2023-05-10T04:53:32;12.10;99.90
52203;DHT22;38173;52.850;6.970;2023-05-10T04:55:59;12.10;99.90
52203;DHT22;38173;52.850;6.970;2023-05-10T04:58:24;12.10;99.90
52203;DHT22;38173;52.850;6.970;2023-05-10T05:00:50;12.20;99.90
52203;DHT22;38173;52.850;6.970;2023-05-10T05:03:19;12.10;99.90
52203;DHT22;38173;52.850;6.970;2023-05-10T05:05:50;12.10;99.90
52203;DHT22;38173;52.850;6.970;2023-05-10T05:08:16;12.20;99.90
52203;DHT22;38173;52.850;6.970;2023-05-10T05:10:41;12.20;99.90
52203;DHT22;38173;52.850;6.970;2023-05-10T05:13:07;12.20;99.90
52203;DHT22;38173;52.850;6.970;2023-05-10T05:15:35;12.30;99.90
52203;DHT22;38173;52.850;6.970;2023-05-10T05:18:01;12.20;99.90
52203;DHT22;38173;52.850;6.970;2023-05-10T05:20:26;12.30;99.90
52203;DHT22;38173;52.850;6.970;2023-05-10T05:22:55;12.30;99.90
52203;DHT22;38173;52.850;6.970;2023-05-10T05:25:21;12.30;99.90
52203;DHT22;38173;52.850;6.970;2023-05-10T05:27:47;12.30;99.90
52203;DHT22;38173;52.850;6.970;2023-05-10T05:30:12;12.30;99.90
52203;DHT22;38173;52.850;6.970;2023-05-10T05:32:38;12.30;99.90
52203;DHT22;38173;52.850;6.970;2023-05-10T05:35:04;12.30;99.90
52203;DHT22;38173;52.850;6.970;2023-05-10T05:37:30;12.20;99.90
52203;DHT22;38173;52.850;6.970;2023-05-10T05:39:55;12.30;99.90
52203;DHT22;38173;52.850;6.970;2023-05-10T05:42:21;12.30;99.90
52203;DHT22;38173;52.850;6.970;2023-05-10T05:44:47;12.30;99.90
52203;DHT22;38173;52.850;6.970;2023-05-10T05:47:13;12.30;99.90
52203;DHT22;38173;52.850;6.970;2023-05-10T05:49:39;12.30;99.90
52203;DHT22;38173;52.850;6.970;2023-05-10T05:52:05;12.40;99.90
52203;DHT22;38173;52.850;6.970;2023-05-10T05:54:30;12.50;99.90
52203;DHT22;38173;52.850;6.970;2023-05-10T05:56:57;12.50;99.90
52203;DHT22;38173;52.850;6.970;2023-05-10T05:59:23;12.50;99.90
52203;DHT22;38173;52.850;6.970;2023-05-10T06:01:49;12.60;99.90
52203;DHT22;38173;52.850;6.970;2023-05-10T06:04:15;12.60;99.90
52203;DHT22;38173;52.850;6.970;2023-05-10T06:06:42;12.60;99.90
52203;DHT22;38173;52.850;6.970;2023-05-10T06:09:08;12.70;99.90
52203;DHT22;38173;52.850;6.970;2023-05-10T06:11:34;12.80;99.90
52203;DHT22;38173;52.850;6.970;2023-05-10T06:14:00;12.80;99.90
52203;DHT22;38173;52.850;6.970;2023-05-10T06:16:27;12.80;99.90
52203;DHT22;38173;52.850;6.970;2023-05-10T06:18:53;12.80;99.90
52203;DHT22;38173;52.850;6.970;2023-05-10T06:21:19;12.80;99.90
52203;DHT22;38173;52.850;6.970;2023-05-10T06:23:44;12.80;99.90
52203;DHT22;38173;52.850;6.970;2023-05-10T06:26:13;12.80;99.90
52203;DHT22;38173;52.850;6.970;2023-05-10T06:28:39;12.80;99.90
52203;DHT22;38173;52.850;6.970;2023-05-10T06:31:05;12.80;99.90
52203;DHT22;38173;52.850;6.970;2023-05-10T06:33:32;12.70;99.90
52203;DHT22;38173;52.850;6.970;2023-05-10T06:35:58;12.70;99.90
52203;DHT22;38173;52.850;6.970;2023-05-10T06:38:23;12.70;99.90
52203;DHT22;38173;52.850;6.970;2023-05-10T06:40:49;12.70;99.90
52203;DHT22;38173;52.850;6.970;2023-05-10T06:43:15;12.70;99.90
52203;DHT22;38173;52.850;6.970;2023-05-10T06:45:41;12.70;99.90
52203;DHT22;38173;52.850;6.970;2023-05-10T06:48:07;12.70;99.90
52203;DHT22;38173;52.850;6.970;2023-05-10T06:50:35;12.70;99.90
52203;DHT22;38173;52.850;6.970;2023-05-10T06:53:01;12.70;99.90
52203;DHT22;38173;52.850;6.970;2023-05-10T06:55:27;12.70;99.90
52203;DHT22;38173;52.850;6.970;2023-05-10T06:57:53;12.60;99.90
52203;DHT22;38173;52.850;6.970;2023-05-10T07:00:19;12.60;99.90
52203;DHT22;38173;52.850;6.970;2023-05-10T07:02:45;12.60;99.90
52203;DHT22;38173;52.850;6.970;2023-05-10T07:05:10;12.60;99.90
52203;DHT22;38173;52.850;6.970;2023-05-10T07:07:37;12.60;99.90
52203;DHT22;38173;52.850;6.970;2023-05-10T07:10:03;12.60;99.90
52203;DHT22;38173;52.850;6.970;2023-05-10T07:12:29;12.60;99.90
52203;DHT22;38173;52.850;6.970;2023-05-10T07:14:54;12.60;99.90
52203;DHT22;38173;52.850;6.970;2023-05-10T07:17:20;12.60;99.90
52203;DHT22;38173;52.850;6.970;2023-05-10T07:19:46;12.70;99.90
52203;DHT22;38173;52.850;6.970;2023-05-10T07:22:11;12.80;99.90
52203;DHT22;38173;52.850;6.970;2023-05-10T07:24:37;12.80;99.90
52203;DHT22;38173;52.850;6.970;2023-05-10T07:27:03;12.80;99.90
52203;DHT22;38173;52.850;6.970;2023-05-10T07:29:29;12.90;99.90
52203;DHT22;38173;52.850;6.970;2023-05-10T07:31:55;13.00;99.90
52203;DHT22;38173;52.850;6.970;2023-05-10T07:34:21;13.00;99.90
52203;DHT22;38173;52.850;6.970;2023-05-10T07:36:46;13.10;99.90
52203;DHT22;38173;52.850;6.970;2023-05-10T07:39:12;13.10;99.90
52203;DHT22;38173;52.850;6.970;2023-05-10T07:41:38;13.10;99.90
52203;DHT22;38173;52.850;6.970;2023-05-10T07:44:04;13.20;99.90
52203;DHT22;38173;52.850;6.970;2023-05-10T07:46:30;13.30;99.90
52203;DHT22;38173;52.850;6.970;2023-05-10T07:48:56;13.30;99.90
52203;DHT22;38173;52.850;6.970;2023-05-10T07:51:21;13.30;99.90
52203;DHT22;38173;52.850;6.970;2023-05-10T07:53:47;13.30;99.90
52203;DHT22;38173;52.850;6.970;2023-05-10T07:56:26;13.40;99.90
52203;DHT22;38173;52.850;6.970;2023-05-10T07:58:57;13.40;99.90
52203;DHT22;38173;52.850;6.970;2023-05-10T08:01:23;13.40;99.90
52203;DHT22;38173;52.850;6.970;2023-05-10T08:03:49;13.40;99.90
52203;DHT22;38173;52.850;6.970;2023-05-10T08:06:17;13.40;99.90
52203;DHT22;38173;52.850;6.970;2023-05-10T08:08:42;13.40;99.90
52203;DHT22;38173;52.850;6.970;2023-05-10T08:11:08;13.40;99.90
52203;DHT22;38173;52.850;6.970;2023-05-10T08:13:34;13.40;99.90
52203;DHT22;38173;52.850;6.970;2023-05-10T08:16:00;13.40;99.90
52203;DHT22;38173;52.850;6.970;2023-05-10T08:18:25;13.40;99.90
52203;DHT22;38173;52.850;6.970;2023-05-10T08:20:51;13.40;99.90
52203;DHT22;38173;52.850;6.970;2023-05-10T08:23:17;13.50;99.90
52203;DHT22;38173;52.850;6.970;2023-05-10T08:25:42;13.50;99.90
52203;DHT22;38173;52.850;6.970;2023-05-10T08:28:08;13.60;99.90
52203;DHT22;38173;52.850;6.970;2023-05-10T08:30:34;13.70;99.90
52203;DHT22;38173;52.850;6.970;2023-05-10T08:33:00;13.70;99.90
52203;DHT22;38173;52.850;6.970;2023-05-10T08:35:25;13.90;99.90
52203;DHT22;38173;52.850;6.970;2023-05-10T08:37:51;14.10;99.90
52203;DHT22;38173;52.850;6.970;2023-05-10T08:40:17;14.20;99.90
52203;DHT22;38173;52.850;6.970;2023-05-10T08:42:55;14.40;99.90
52203;DHT22;38173;52.850;6.970;2023-05-10T08:45:23;14.50;99.90
52203;DHT22;38173;52.850;6.970;2023-05-10T08:47:49;14.50;99.90
52203;DHT22;38173;52.850;6.970;2023-05-10T08:50:17;14.50;99.90
52203;DHT22;38173;52.850;6.970;2023-05-10T08:52:42;14.50;99.90
52203;DHT22;38173;52.850;6.970;2023-05-10T08:55:09;14.50;99.90
52203;DHT22;38173;52.850;6.970;2023-05-10T08:57:35;14.40;99.90
52203;DHT22;38173;52.850;6.970;2023-05-10T09:00:01;14.30;99.90
52203;DHT22;38173;52.850;6.970;2023-05-10T09:02:26;14.20;99.90
52203;DHT22;38173;52.850;6.970;2023-05-10T09:04:52;14.00;99.90
52203;DHT22;38173;52.850;6.970;2023-05-10T09:07:18;13.90;99.90
52203;DHT22;38173;52.850;6.970;2023-05-10T09:09:45;14.00;99.90
52203;DHT22;38173;52.850;6.970;2023-05-10T09:12:11;14.10;99.90
52203;DHT22;38173;52.850;6.970;2023-05-10T09:14:37;14.30;99.90
52203;DHT22;38173;52.850;6.970;2023-05-10T09:17:03;14.40;99.90
52203;DHT22;38173;52.850;6.970;2023-05-10T09:19:29;14.50;99.90
52203;DHT22;38173;52.850;6.970;2023-05-10T09:21:55;14.70;99.90
52203;DHT22;38173;52.850;6.970;2023-05-10T09:24:25;14.80;99.90
52203;DHT22;38173;52.850;6.970;2023-05-10T09:26:57;14.80;99.90
52203;DHT22;38173;52.850;6.970;2023-05-10T09:29:24;14.90;99.90
52203;DHT22;38173;52.850;6.970;2023-05-10T09:31:56;14.90;99.90
52203;DHT22;38173;52.850;6.970;2023-05-10T09:34:29;14.90;99.90
52203;DHT22;38173;52.850;6.970;2023-05-10T09:36:58;14.90;99.90
52203;DHT22;38173;52.850;6.970;2023-05-10T09:39:33;14.80;99.90
52203;DHT22;38173;52.850;6.970;2023-05-10T09:42:03;14.90;99.90
52203;DHT22;38173;52.850;6.970;2023-05-10T09:44:30;14.90;99.90
52203;DHT22;38173;52.850;6.970;2023-05-10T09:46:56;15.00;99.90
52203;DHT22;38173;52.850;6.970;2023-05-10T09:49:25;15.10;99.90
52203;DHT22;38173;52.850;6.970;2023-05-10T09:52:00;15.00;99.90
52203;DHT22;38173;52.850;6.970;2023-05-10T09:54:30;14.90;99.90
52203;DHT22;38173;52.850;6.970;2023-05-10T09:57:03;14.90;99.90
52203;DHT22;38173;52.850;6.970;2023-05-10T09:59:38;14.90;99.90
52203;DHT22;38173;52.850;6.970;2023-05-10T10:02:10;14.90;99.90
52203;DHT22;38173;52.850;6.970;2023-05-10T10:04:40;14.90;99.90
52203;DHT22;38173;52.850;6.970;2023-05-10T10:07:08;15.10;99.90
52203;DHT22;38173;52.850;6.970;2023-05-10T10:09:34;15.30;99.90
52203;DHT22;38173;52.850;6.970;2023-05-10T10:12:03;15.40;99.90
52203;DHT22;38173;52.850;6.970;2023-05-10T10:14:30;15.40;99.90
52203;DHT22;38173;52.850;6.970;2023-05-10T10:17:00;15.70;99.90
52203;DHT22;38173;52.850;6.970;2023-05-10T10:19:28;16.00;99.90
52203;DHT22;38173;52.850;6.970;2023-05-10T10:21:58;16.40;99.90
52203;DHT22;38173;52.850;6.970;2023-05-10T10:24:26;16.60;99.90
52203;DHT22;38173;52.850;6.970;2023-05-10T10:26:52;16.80;99.90
52203;DHT22;38173;52.850;6.970;2023-05-10T10:29:26;16.60;99.90
52203;DHT22;38173;52.850;6.970;2023-05-10T10:31:57;16.30;99.90
52203;DHT22;38173;52.850;6.970;2023-05-10T10:34:28;15.90;99.90
52203;DHT22;38173;52.850;6.970;2023-05-10T10:36:57;15.60;99.90
52203;DHT22;38173;52.850;6.970;2023-05-10T10:39:24;15.30;99.90
52203;DHT22;38173;52.850;6.970;2023-05-10T10:41:52;15.10;99.90
52203;DHT22;38173;52.850;6.970;2023-05-10T10:49:51;15.10;99.90
52203;DHT22;38173;52.850;6.970;2023-05-10T10:52:22;15.10;99.90
52203;DHT22;38173;52.850;6.970;2023-05-10T10:57:46;15.10;99.90
52203;DHT22;38173;52.850;6.970;2023-05-10T11:02:58;15.20;99.90
52203;DHT22;38173;52.850;6.970;2023-05-10T11:05:33;15.30;99.90
52203;DHT22;38173;52.850;6.970;2023-05-10T11:08:15;15.40;99.90
52203;DHT22;38173;52.850;6.970;2023-05-10T11:10:52;15.50;99.90
52203;DHT22;38173;52.850;6.970;2023-05-10T11:16:21;15.90;99.90
52203;DHT22;38173;52.850;6.970;2023-05-10T11:19:06;16.00;99.90
52203;DHT22;38173;52.850;6.970;2023-05-10T11:21:48;15.90;99.90
52203;DHT22;38173;52.850;6.970;2023-05-10T11:24:22;15.90;99.90
52203;DHT22;38173;52.850;6.970;2023-05-10T11:26:53;15.70;99.90
52203;DHT22;38173;52.850;6.970;2023-05-10T11:29:19;15.70;99.90
52203;DHT22;38173;52.850;6.970;2023-05-10T11:31:47;15.60;99.90
52203;DHT22;38173;52.850;6.970;2023-05-10T11:34:24;15.50;99.90
52203;DHT22;38173;52.850;6.970;2023-05-10T11:36:51;15.40;99.90
52203;DHT22;38173;52.850;6.970;2023-05-10T11:39:20;15.40;99.90
52203;DHT22;38173;52.850;6.970;2023-05-10T11:44:38;15.20;99.90
52203;DHT22;38173;52.850;6.970;2023-05-10T11:47:04;15.30;99.90
52203;DHT22;38173;52.850;6.970;2023-05-10T11:49:31;15.20;99.90
52203;DHT22;38173;52.850;6.970;2023-05-10T11:52:04;15.20;99.90
52203;DHT22;38173;52.850;6.970;2023-05-10T11:54:33;15.20;99.90
52203;DHT22;38173;52.850;6.970;2023-05-10T11:57:00;15.20;99.90
52203;DHT22;38173;52.850;6.970;2023-05-10T11:59:26;15.20;99.90
52203;DHT22;38173;52.850;6.970;2023-05-10T12:01:52;15.20;99.90
52203;DHT22;38173;52.850;6.970;2023-05-10T12:04:18;15.30;99.90
52203;DHT22;38173;52.850;6.970;2023-05-10T12:06:44;15.30;99.90
52203;DHT22;38173;52.850;6.970;2023-05-10T12:09:17;15.40;99.90
52203;DHT22;38173;52.850;6.970;2023-05-10T12:11:46;15.40;99.90
52203;DHT22;38173;52.850;6.970;2023-05-10T12:14:12;15.50;99.90
52203;DHT22;38173;52.850;6.970;2023-05-10T12:16:38;15.60;99.90
52203;DHT22;38173;52.850;6.970;2023-05-10T12:19:07;15.70;99.90
52203;DHT22;38173;52.850;6.970;2023-05-10T12:21:38;15.70;99.90
52203;DHT22;38173;52.850;6.970;2023-05-10T12:24:06;15.80;99.90
52203;DHT22;38173;52.850;6.970;2023-05-10T12:26:36;15.90;99.90
52203;DHT22;38173;52.850;6.970;2023-05-10T12:29:18;16.00;99.90
52203;DHT22;38173;52.850;6.970;2023-05-10T12:34:32;16.10;99.90
52203;DHT22;38173;52.850;6.970;2023-05-10T12:37:02;16.20;99.90
52203;DHT22;38173;52.850;6.970;2023-05-10T12:39:43;16.20;99.90
52203;DHT22;38173;52.850;6.970;2023-05-10T12:42:14;16.30;99.90
52203;DHT22;38173;52.850;6.970;2023-05-10T12:44:41;16.40;99.90
52203;DHT22;38173;52.850;6.970;2023-05-10T12:47:07;16.60;99.90
52203;DHT22;38173;52.850;6.970;2023-05-10T12:49:33;16.60;99.90
52203;DHT22;38173;52.850;6.970;2023-05-10T12:51:59;16.60;99.90
52203;DHT22;38173;52.850;6.970;2023-05-10T12:54:25;16.70;99.90
52203;DHT22;38173;52.850;6.970;2023-05-10T12:56:52;16.60;99.90
52203;DHT22;38173;52.850;6.970;2023-05-10T12:59:18;16.60;99.90
52203;DHT22;38173;52.850;6.970;2023-05-10T13:01:44;16.50;99.90
52203;DHT22;38173;52.850;6.970;2023-05-10T13:04:09;16.50;99.90
52203;DHT22;38173;52.850;6.970;2023-05-10T13:06:35;16.40;99.90
52203;DHT22;38173;52.850;6.970;2023-05-10T13:09:01;16.40;99.90
52203;DHT22;38173;52.850;6.970;2023-05-10T13:11:26;16.40;99.90
52203;DHT22;38173;52.850;6.970;2023-05-10T13:13:52;16.40;99.90
52203;DHT22;38173;52.850;6.970;2023-05-10T13:16:18;16.40;99.90
52203;DHT22;38173;52.850;6.970;2023-05-10T13:18:43;16.50;99.90
52203;DHT22;38173;52.850;6.970;2023-05-10T13:21:09;16.50;99.90
52203;DHT22;38173;52.850;6.970;2023-05-10T13:23:35;16.50;99.90
52203;DHT22;38173;52.850;6.970;2023-05-10T13:26:00;16.50;99.90
52203;DHT22;38173;52.850;6.970;2023-05-10T13:28:26;16.60;99.90
52203;DHT22;38173;52.850;6.970;2023-05-10T13:30:52;16.70;99.90
52203;DHT22;38173;52.850;6.970;2023-05-10T13:33:18;16.60;99.90
52203;DHT22;38173;52.850;6.970;2023-05-10T13:35:44;16.60;99.90
52203;DHT22;38173;52.850;6.970;2023-05-10T13:38:10;16.50;99.90
52203;DHT22;38173;52.850;6.970;2023-05-10T13:40:35;16.40;99.90
52203;DHT22;38173;52.850;6.970;2023-05-10T13:43:01;16.30;99.90
52203;DHT22;38173;52.850;6.970;2023-05-10T13:45:27;16.20;99.90
52203;DHT22;38173;52.850;6.970;2023-05-10T13:47:53;16.20;99.90
52203;DHT22;38173;52.850;6.970;2023-05-10T13:50:18;16.20;99.90
52203;DHT22;38173;52.850;6.970;2023-05-10T13:52:44;16.10;99.90
52203;DHT22;38173;52.850;6.970;2023-05-10T13:55:10;16.20;99.90
52203;DHT22;38173;52.850;6.970;2023-05-10T13:57:37;16.20;99.90
52203;DHT22;38173;52.850;6.970;2023-05-10T14:00:03;16.30;99.90
52203;DHT22;38173;52.850;6.970;2023-05-10T14:02:30;16.30;99.90
52203;DHT22;38173;52.850;6.970;2023-05-10T14:04:56;16.30;99.90
52203;DHT22;38173;52.850;6.970;2023-05-10T14:07:21;16.30;99.90
52203;DHT22;38173;52.850;6.970;2023-05-10T14:09:47;16.30;99.90
52203;DHT22;38173;52.850;6.970;2023-05-10T14:12:13;16.30;99.90
52203;DHT22;38173;52.850;6.970;2023-05-10T14:14:40;16.30;99.90
52203;DHT22;38173;52.850;6.970;2023-05-10T14:17:05;16.20;99.90
52203;DHT22;38173;52.850;6.970;2023-05-10T14:19:31;16.20;99.90
52203;DHT22;38173;52.850;6.970;2023-05-10T14:21:59;16.10;99.90
52203;DHT22;38173;52.850;6.970;2023-05-10T14:24:24;16.10;99.90
52203;DHT22;38173;52.850;6.970;2023-05-10T14:26:50;16.10;99.90
52203;DHT22;38173;52.850;6.970;2023-05-10T14:29:19;16.00;99.90
52203;DHT22;38173;52.850;6.970;2023-05-10T14:31:45;16.00;99.90
52203;DHT22;38173;52.850;6.970;2023-05-10T14:34:10;16.00;99.90
52203;DHT22;38173;52.850;6.970;2023-05-10T14:36:36;16.10;99.90
52203;DHT22;38173;52.850;6.970;2023-05-10T14:39:02;16.10;99.90
52203;DHT22;38173;52.850;6.970;2023-05-10T14:41:28;16.10;99.90
52203;DHT22;38173;52.850;6.970;2023-05-10T14:43:55;16.10;99.90
52203;DHT22;38173;52.850;6.970;2023-05-10T14:46:21;16.20;99.90
52203;DHT22;38173;52.850;6.970;2023-05-10T14:48:46;16.20;99.90
52203;DHT22;38173;52.850;6.970;2023-05-10T14:51:12;16.30;99.90
52203;DHT22;38173;52.850;6.970;2023-05-10T14:53:38;16.40;99.90
52203;DHT22;38173;52.850;6.970;2023-05-10T14:56:04;16.60;99.90
52203;DHT22;38173;52.850;6.970;2023-05-10T14:58:29;16.70;99.90
52203;DHT22;38173;52.850;6.970;2023-05-10T15:00:58;16.90;99.90
52203;DHT22;38173;52.850;6.970;2023-05-10T15:03:24;17.10;99.90
52203;DHT22;38173;52.850;6.970;2023-05-10T15:05:50;17.10;99.90
52203;DHT22;38173;52.850;6.970;2023-05-10T15:08:16;17.20;99.90
52203;DHT22;38173;52.850;6.970;2023-05-10T15:10:42;17.20;99.90
52203;DHT22;38173;52.850;6.970;2023-05-10T15:13:08;17.30;99.90
52203;DHT22;38173;52.850;6.970;2023-05-10T15:15:33;17.30;99.90
52203;DHT22;38173;52.850;6.970;2023-05-10T15:17:59;17.30;99.90
52203;DHT22;38173;52.850;6.970;2023-05-10T15:20:25;17.20;99.90
52203;DHT22;38173;52.850;6.970;2023-05-10T15:22:51;17.20;99.90
52203;DHT22;38173;52.850;6.970;2023-05-10T15:25:16;17.10;99.90
52203;DHT22;38173;52.850;6.970;2023-05-10T15:27:43;17.10;99.90
52203;DHT22;38173;52.850;6.970;2023-05-10T15:30:09;17.10;99.90
52203;DHT22;38173;52.850;6.970;2023-05-10T15:32:35;17.20;99.90
52203;DHT22;38173;52.850;6.970;2023-05-10T15:35:01;17.20;99.90
52203;DHT22;38173;52.850;6.970;2023-05-10T15:37:28;17.20;99.90
52203;DHT22;38173;52.850;6.970;2023-05-10T15:39:53;17.30;99.90
52203;DHT22;38173;52.850;6.970;2023-05-10T15:42:19;17.30;99.90
52203;DHT22;38173;52.850;6.970;2023-05-10T15:44:44;17.30;99.90
52203;DHT22;38173;52.850;6.970;2023-05-10T15:47:15;17.30;99.90
52203;DHT22;38173;52.850;6.970;2023-05-10T15:49:41;17.20;99.90
52203;DHT22;38173;52.850;6.970;2023-05-10T15:52:06;17.20;99.90
52203;DHT22;38173;52.850;6.970;2023-05-10T15:54:32;17.20;99.90
52203;DHT22;38173;52.850;6.970;2023-05-10T15:56:57;17.10;99.90
52203;DHT22;38173;52.850;6.970;2023-05-10T15:59:24;17.00;99.90
52203;DHT22;38173;52.850;6.970;2023-05-10T16:01:50;17.00;99.90